sensor_id;sensor_type;location;lat;lon;timestamp;pressure;altitude;pressure_sealevel;temperature;humidity
24336;BME280;33098;52.400;16.880;2023-03-24T00:01:02;99932.52;;;10.95;79.53
24336;BME280;33098;52.400;16.880;2023-03-24T00:03:29;99934.34;;;10.94;79.77
24336;BME280;33098;52.400;16.880;2023-03-24T00:05:57;99928.23;;;10.98;80.01
24336;BME280;33098;52.400;16.880;2023-03-24T00:08:28;99933.85;;;10.96;79.92
24336;BME280;33098;52.400;16.880;2023-03-24T00:11:06;99928.84;;;10.97;80.09
24336;BME280;33098;52.400;16.880;2023-03-24T00:13:33;99927.59;;;10.97;80.01
24336;BME280;33098;52.400;16.880;2023-03-24T00:16:12;99927.45;;;11.02;80.34
24336;BME280;33098;52.400;16.880;2023-03-24T00:18:42;99932.59;;;11.07;80.29
24336;BME280;33098;52.400;16.880;2023-03-24T00:21:09;99930.58;;;11.13;80.28
24336;BME280;33098;52.400;16.880;2023-03-24T00:23:37;99932.08;;;11.18;80.33
24336;BME280;33098;52.400;16.880;2023-03-24T00:26:05;99931.19;;;11.22;80.17
24336;BME280;33098;52.400;16.880;2023-03-24T00:28:43;99931.70;;;11.30;80.10
24336;BME280;33098;52.400;16.880;2023-03-24T00:31:11;99933.58;;;11.39;80.14
24336;BME280;33098;52.400;16.880;2023-03-24T00:33:43;99929.31;;;11.45;79.98
24336;BME280;33098;52.400;16.880;2023-03-24T00:36:10;99927.37;;;11.51;79.93
24336;BME280;33098;52.400;16.880;2023-03-24T00:38:39;99924.33;;;11.55;79.78
24336;BME280;33098;52.400;16.880;2023-03-24T00:41:13;99922.86;;;11.54;79.55
24336;BME280;33098;52.400;16.880;2023-03-24T00:43:40;99918.28;;;11.47;79.52
24336;BME280;33098;52.400;16.880;2023-03-24T00:46:07;99909.05;;;11.51;79.61
24336;BME280;33098;52.400;16.880;2023-03-24T00:48:37;99904.65;;;11.51;79.62
24336;BME280;33098;52.400;16.880;2023-03-24T00:51:04;99898.98;;;11.52;79.65
24336;BME280;33098;52.400;16.880;2023-03-24T00:53:37;99902.48;;;11.51;79.54
24336;BME280;33098;52.400;16.880;2023-03-24T00:56:09;99895.21;;;11.45;79.48
24336;BME280;33098;52.400;16.880;2023-03-24T00:58:42;99894.33;;;11.37;79.28
24336;BME280;33098;52.400;16.880;2023-03-24T01:01:09;99890.86;;;11.36;79.51
24336;BME280;33098;52.400;16.880;2023-03-24T01:03:36;99890.98;;;11.39;79.73
24336;BME280;33098;52.400;16.880;2023-03-24T01:06:13;99887.30;;;11.34;79.70
24336;BME280;33098;52.400;16.880;2023-03-24T01:08:41;99885.14;;;11.33;80.03
24336;BME280;33098;52.400;16.880;2023-03-24T01:11:08;99882.56;;;11.30;80.46
24336;BME280;33098;52.400;16.880;2023-03-24T01:13:36;99881.63;;;11.24;80.68
24336;BME280;33098;52.400;16.880;2023-03-24T01:16:03;99878.48;;;11.23;80.83
24336;BME280;33098;52.400;16.880;2023-03-24T01:18:30;99871.96;;;11.25;80.90
24336;BME280;33098;52.400;16.880;2023-03-24T01:20:56;99871.83;;;11.26;80.91
24336;BME280;33098;52.400;16.880;2023-03-24T01:23:24;99869.18;;;11.32;81.07
24336;BME280;33098;52.400;16.880;2023-03-24T01:25:53;99863.85;;;11.34;81.09
24336;BME280;33098;52.400;16.880;2023-03-24T01:28:21;99863.30;;;11.38;81.09
24336;BME280;33098;52.400;16.880;2023-03-24T01:30:50;99868.88;;;11.38;81.04
24336;BME280;33098;52.400;16.880;2023-03-24T01:33:17;99867.89;;;11.37;80.99
24336;BME280;33098;52.400;16.880;2023-03-24T01:35:44;99868.54;;;11.39;81.02
24336;BME280;33098;52.400;16.880;2023-03-24T01:38:11;99861.40;;;11.45;80.99
24336;BME280;33098;52.400;16.880;2023-03-24T01:40:41;99863.09;;;11.48;81.15
24336;BME280;33098;52.400;16.880;2023-03-24T01:43:28;99860.53;;;11.47;81.20
24336;BME280;33098;52.400;16.880;2023-03-24T01:46:06;99855.27;;;11.47;81.38
24336;BME280;33098;52.400;16.880;2023-03-24T01:48:38;99858.58;;;11.48;81.49
24336;BME280;33098;52.400;16.880;2023-03-24T01:51:11;99858.05;;;11.47;81.44
24336;BME280;33098;52.400;16.880;2023-03-24T01:53:42;99854.31;;;11.47;81.45
24336;BME280;33098;52.400;16.880;2023-03-24T01:56:12;99850.91;;;11.51;81.53
24336;BME280;33098;52.400;16.880;2023-03-24T01:58:42;99850.72;;;11.52;81.56
24336;BME280;33098;52.400;16.880;2023-03-24T02:01:23;99849.08;;;11.56;81.55
24336;BME280;33098;52.400;16.880;2023-03-24T02:04:13;99841.05;;;11.54;81.56
24336;BME280;33098;52.400;16.880;2023-03-24T02:06:43;99835.73;;;11.60;81.72
24336;BME280;33098;52.400;16.880;2023-03-24T02:09:12;99834.02;;;11.57;81.58
24336;BME280;33098;52.400;16.880;2023-03-24T02:11:39;99828.16;;;11.53;81.55
24336;BME280;33098;52.400;16.880;2023-03-24T02:14:07;99828.27;;;11.60;81.85
24336;BME280;33098;52.400;16.880;2023-03-24T02:21:47;99821.08;;;11.88;81.80
24336;BME280;33098;52.400;16.880;2023-03-24T02:26:46;99815.37;;;11.89;81.23
24336;BME280;33098;52.400;16.880;2023-03-24T02:35:00;99815.61;;;11.85;80.99
24336;BME280;33098;52.400;16.880;2023-03-24T02:40:10;99804.52;;;11.91;81.10
24336;BME280;33098;52.400;16.880;2023-03-24T02:59:17;99800.55;;;11.66;80.24
24336;BME280;33098;52.400;16.880;2023-03-24T03:01:50;99799.73;;;11.53;80.25
24336;BME280;33098;52.400;16.880;2023-03-24T03:04:40;99797.80;;;11.49;80.66
24336;BME280;33098;52.400;16.880;2023-03-24T03:07:14;99796.16;;;11.44;80.64
24336;BME280;33098;52.400;16.880;2023-03-24T03:09:45;99793.75;;;11.41;80.84
24336;BME280;33098;52.400;16.880;2023-03-24T03:12:13;99787.13;;;11.38;80.86
24336;BME280;33098;52.400;16.880;2023-03-24T03:14:44;99784.70;;;11.39;81.00
24336;BME280;33098;52.400;16.880;2023-03-24T03:17:23;99781.92;;;11.37;81.04
24336;BME280;33098;52.400;16.880;2023-03-24T03:20:08;99785.69;;;11.31;81.23
24336;BME280;33098;52.400;16.880;2023-03-24T03:22:54;99779.27;;;11.24;81.24
24336;BME280;33098;52.400;16.880;2023-03-24T03:25:24;99780.37;;;11.26;81.45
24336;BME280;33098;52.400;16.880;2023-03-24T03:27:56;99774.61;;;11.25;81.49
24336;BME280;33098;52.400;16.880;2023-03-24T03:30:33;99772.63;;;11.22;81.66
24336;BME280;33098;52.400;16.880;2023-03-24T03:33:05;99767.80;;;11.18;81.66
24336;BME280;33098;52.400;16.880;2023-03-24T03:41:01;99760.02;;;11.16;81.89
24336;BME280;33098;52.400;16.880;2023-03-24T03:43:33;99751.45;;;11.09;82.04
24336;BME280;33098;52.400;16.880;2023-03-24T03:46:01;99745.80;;;11.10;82.26
24336;BME280;33098;52.400;16.880;2023-03-24T03:48:32;99744.05;;;11.13;82.47
24336;BME280;33098;52.400;16.880;2023-03-24T03:51:00;99741.73;;;11.18;82.58
24336;BME280;33098;52.400;16.880;2023-03-24T03:53:30;99735.44;;;11.22;82.59
24336;BME280;33098;52.400;16.880;2023-03-24T03:56:01;99729.15;;;11.27;82.54
24336;BME280;33098;52.400;16.880;2023-03-24T03:58:31;99723.58;;;11.24;82.46
24336;BME280;33098;52.400;16.880;2023-03-24T04:00:59;99719.11;;;11.26;82.61
24336;BME280;33098;52.400;16.880;2023-03-24T04:07:11;99724.40;;;11.13;82.44
24336;BME280;33098;52.400;16.880;2023-03-24T04:15:52;99710.52;;;11.26;82.89
24336;BME280;33098;52.400;16.880;2023-03-24T04:18:46;99707.96;;;11.29;82.74
24336;BME280;33098;52.400;16.880;2023-03-24T04:21:42;99704.80;;;11.25;82.66
24336;BME280;33098;52.400;16.880;2023-03-24T04:24:21;99705.88;;;11.33;82.77
24336;BME280;33098;52.400;16.880;2023-03-24T04:26:56;99707.92;;;11.24;82.54
24336;BME280;33098;52.400;16.880;2023-03-24T04:29:32;99706.30;;;11.22;82.62
24336;BME280;33098;52.400;16.880;2023-03-24T04:32:09;99703.09;;;11.24;82.77
24336;BME280;33098;52.400;16.880;2023-03-24T04:34:41;99696.27;;;11.29;82.80
24336;BME280;33098;52.400;16.880;2023-03-24T04:37:23;99697.45;;;11.18;82.59
24336;BME280;33098;52.400;16.880;2023-03-24T04:39:58;99690.11;;;11.09;82.70
24336;BME280;33098;52.400;16.880;2023-03-24T04:42:27;99691.95;;;11.09;82.96
24336;BME280;33098;52.400;16.880;2023-03-24T04:44:56;99683.56;;;11.19;83.33
24336;BME280;33098;52.400;16.880;2023-03-24T04:47:37;99676.52;;;11.25;83.28
24336;BME280;33098;52.400;16.880;2023-03-24T04:50:39;99671.33;;;11.34;83.26
24336;BME280;33098;52.400;16.880;2023-03-24T04:53:11;99665.27;;;11.32;83.12
24336;BME280;33098;52.400;16.880;2023-03-24T04:55:53;99665.08;;;11.38;83.15
24336;BME280;33098;52.400;16.880;2023-03-24T04:58:43;99665.11;;;11.37;83.10
24336;BME280;33098;52.400;16.880;2023-03-24T05:01:10;99665.35;;;11.33;82.93
24336;BME280;33098;52.400;16.880;2023-03-24T05:03:37;99663.66;;;11.34;83.11
24336;BME280;33098;52.400;16.880;2023-03-24T05:06:04;99664.59;;;11.34;83.10
24336;BME280;33098;52.400;16.880;2023-03-24T05:08:31;99669.23;;;11.29;83.01
24336;BME280;33098;52.400;16.880;2023-03-24T05:10:59;99666.09;;;11.23;83.08
24336;BME280;33098;52.400;16.880;2023-03-24T05:13:27;99660.20;;;11.18;83.02
24336;BME280;33098;52.400;16.880;2023-03-24T05:15:59;99653.97;;;11.14;83.19
24336;BME280;33098;52.400;16.880;2023-03-24T05:18:34;99649.58;;;11.17;83.62
24336;BME280;33098;52.400;16.880;2023-03-24T05:21:01;99652.71;;;11.24;83.78
24336;BME280;33098;52.400;16.880;2023-03-24T05:23:28;99650.06;;;11.28;83.84
24336;BME280;33098;52.400;16.880;2023-03-24T05:25:57;99646.69;;;11.27;83.81
24336;BME280;33098;52.400;16.880;2023-03-24T05:28:24;99649.73;;;11.31;84.01
24336;BME280;33098;52.400;16.880;2023-03-24T05:30:53;99645.73;;;11.34;84.14
24336;BME280;33098;52.400;16.880;2023-03-24T05:33:32;99643.36;;;11.40;84.26
24336;BME280;33098;52.400;16.880;2023-03-24T05:35:58;99635.73;;;11.44;84.27
24336;BME280;33098;52.400;16.880;2023-03-24T05:38:25;99627.95;;;11.51;84.20
24336;BME280;33098;52.400;16.880;2023-03-24T05:40:56;99629.61;;;11.50;84.01
24336;BME280;33098;52.400;16.880;2023-03-24T05:43:24;99630.57;;;11.50;83.88
24336;BME280;33098;52.400;16.880;2023-03-24T05:46:01;99636.07;;;11.53;84.15
24336;BME280;33098;52.400;16.880;2023-03-24T05:48:30;99635.89;;;11.57;84.21
24336;BME280;33098;52.400;16.880;2023-03-24T05:51:18;99628.00;;;11.60;84.20
24336;BME280;33098;52.400;16.880;2023-03-24T05:53:45;99622.00;;;11.69;84.43
24336;BME280;33098;52.400;16.880;2023-03-24T05:56:17;99615.41;;;11.72;84.41
24336;BME280;33098;52.400;16.880;2023-03-24T05:58:58;99610.98;;;11.72;84.34
24336;BME280;33098;52.400;16.880;2023-03-24T06:01:45;99607.13;;;11.79;84.48
24336;BME280;33098;52.400;16.880;2023-03-24T06:04:23;99607.18;;;11.88;84.47
24336;BME280;33098;52.400;16.880;2023-03-24T06:06:51;99607.86;;;11.85;84.23
24336;BME280;33098;52.400;16.880;2023-03-24T06:09:27;99605.23;;;11.86;84.32
24336;BME280;33098;52.400;16.880;2023-03-24T06:11:55;99602.46;;;11.88;84.32
24336;BME280;33098;52.400;16.880;2023-03-24T06:14:23;99606.03;;;11.90;84.40
24336;BME280;33098;52.400;16.880;2023-03-24T06:16:59;99597.29;;;11.94;84.53
24336;BME280;33098;52.400;16.880;2023-03-24T06:19:27;99601.39;;;11.98;84.73
24336;BME280;33098;52.400;16.880;2023-03-24T06:22:12;99597.87;;;12.03;85.06
24336;BME280;33098;52.400;16.880;2023-03-24T06:24:40;99600.61;;;12.10;84.92
24336;BME280;33098;52.400;16.880;2023-03-24T06:27:10;99599.27;;;12.16;85.23
24336;BME280;33098;52.400;16.880;2023-03-24T06:29:37;99602.77;;;12.22;85.34
24336;BME280;33098;52.400;16.880;2023-03-24T06:32:05;99607.79;;;12.20;85.52
24336;BME280;33098;52.400;16.880;2023-03-24T06:34:36;99600.52;;;12.22;85.61
24336;BME280;33098;52.400;16.880;2023-03-24T06:37:17;99602.73;;;12.30;85.76
24336;BME280;33098;52.400;16.880;2023-03-24T06:42:22;99599.64;;;12.41;86.55
24336;BME280;33098;52.400;16.880;2023-03-24T06:44:50;99600.95;;;12.50;87.09
24336;BME280;33098;52.400;16.880;2023-03-24T06:47:17;99600.29;;;12.54;87.39
24336;BME280;33098;52.400;16.880;2023-03-24T06:49:44;99600.75;;;12.58;87.81
24336;BME280;33098;52.400;16.880;2023-03-24T06:52:12;99592.05;;;12.55;88.57
24336;BME280;33098;52.400;16.880;2023-03-24T06:54:40;99582.82;;;12.53;89.14
24336;BME280;33098;52.400;16.880;2023-03-24T06:57:07;99577.84;;;12.55;89.36
24336;BME280;33098;52.400;16.880;2023-03-24T07:00:00;99570.61;;;12.54;89.53
24336;BME280;33098;52.400;16.880;2023-03-24T07:02:32;99571.94;;;12.53;91.05
24336;BME280;33098;52.400;16.880;2023-03-24T07:05:02;99566.60;;;12.57;91.51
24336;BME280;33098;52.400;16.880;2023-03-24T07:07:44;99568.44;;;12.58;91.53
24336;BME280;33098;52.400;16.880;2023-03-24T07:10:35;99567.98;;;12.57;91.77
24336;BME280;33098;52.400;16.880;2023-03-24T07:13:02;99571.32;;;12.59;92.12
24336;BME280;33098;52.400;16.880;2023-03-24T07:15:29;99571.15;;;12.63;92.15
24336;BME280;33098;52.400;16.880;2023-03-24T07:17:58;99568.05;;;12.64;92.01
24336;BME280;33098;52.400;16.880;2023-03-24T07:20:41;99565.83;;;12.70;92.22
24336;BME280;33098;52.400;16.880;2023-03-24T07:23:13;99568.21;;;12.73;92.54
24336;BME280;33098;52.400;16.880;2023-03-24T07:26:02;99565.29;;;12.75;92.98
24336;BME280;33098;52.400;16.880;2023-03-24T07:28:56;99563.71;;;12.85;93.04
24336;BME280;33098;52.400;16.880;2023-03-24T07:31:35;99555.73;;;12.96;92.95
24336;BME280;33098;52.400;16.880;2023-03-24T07:34:06;99556.93;;;13.07;92.63
24336;BME280;33098;52.400;16.880;2023-03-24T07:36:34;99556.53;;;13.07;92.96
24336;BME280;33098;52.400;16.880;2023-03-24T07:39:02;99556.02;;;13.05;92.81
24336;BME280;33098;52.400;16.880;2023-03-24T07:41:32;99563.91;;;13.06;92.58
24336;BME280;33098;52.400;16.880;2023-03-24T07:44:03;99561.89;;;13.12;92.82
24336;BME280;33098;52.400;16.880;2023-03-24T07:46:33;99557.02;;;13.16;92.55
24336;BME280;33098;52.400;16.880;2023-03-24T07:49:00;99552.91;;;13.16;92.43
24336;BME280;33098;52.400;16.880;2023-03-24T07:51:28;99547.96;;;13.18;92.66
24336;BME280;33098;52.400;16.880;2023-03-24T07:54:20;99550.33;;;13.17;92.76
24336;BME280;33098;52.400;16.880;2023-03-24T07:56:48;99548.64;;;13.16;92.99
24336;BME280;33098;52.400;16.880;2023-03-24T07:59:15;99548.04;;;13.19;92.90
24336;BME280;33098;52.400;16.880;2023-03-24T08:02:11;99550.36;;;13.22;92.60
24336;BME280;33098;52.400;16.880;2023-03-24T08:05:02;99551.11;;;13.29;92.99
24336;BME280;33098;52.400;16.880;2023-03-24T08:07:48;99551.78;;;13.29;92.79
24336;BME280;33098;52.400;16.880;2023-03-24T08:10:20;99538.23;;;13.31;92.84
24336;BME280;33098;52.400;16.880;2023-03-24T08:12:48;99537.73;;;13.30;92.84
24336;BME280;33098;52.400;16.880;2023-03-24T08:15:15;99539.86;;;13.34;92.61
24336;BME280;33098;52.400;16.880;2023-03-24T08:17:46;99534.10;;;13.40;92.70
24336;BME280;33098;52.400;16.880;2023-03-24T08:20:16;99532.64;;;13.47;92.64
24336;BME280;33098;52.400;16.880;2023-03-24T08:22:45;99528.84;;;13.51;92.87
24336;BME280;33098;52.400;16.880;2023-03-24T08:25:16;99521.44;;;13.55;92.50
24336;BME280;33098;52.400;16.880;2023-03-24T08:27:44;99516.80;;;13.57;92.50
24336;BME280;33098;52.400;16.880;2023-03-24T08:30:21;99521.55;;;13.60;92.75
24336;BME280;33098;52.400;16.880;2023-03-24T08:32:49;99519.37;;;13.68;92.70
24336;BME280;33098;52.400;16.880;2023-03-24T08:35:18;99518.85;;;13.75;92.70
24336;BME280;33098;52.400;16.880;2023-03-24T08:37:45;99514.95;;;13.83;92.67
24336;BME280;33098;52.400;16.880;2023-03-24T08:40:14;99515.20;;;13.92;92.53
24336;BME280;33098;52.400;16.880;2023-03-24T08:42:48;99513.30;;;13.98;92.17
24336;BME280;33098;52.400;16.880;2023-03-24T08:47:49;99499.94;;;14.20;91.85
24336;BME280;33098;52.400;16.880;2023-03-24T08:50:21;99501.92;;;14.26;91.41
24336;BME280;33098;52.400;16.880;2023-03-24T08:52:51;99501.42;;;14.34;91.20
24336;BME280;33098;52.400;16.880;2023-03-24T08:55:19;99498.61;;;14.43;90.77
24336;BME280;33098;52.400;16.880;2023-03-24T08:57:49;99488.11;;;14.56;90.76
24336;BME280;33098;52.400;16.880;2023-03-24T09:00:17;99490.73;;;14.68;90.28
24336;BME280;33098;52.400;16.880;2023-03-24T09:02:55;99483.16;;;14.78;89.81
24336;BME280;33098;52.400;16.880;2023-03-24T09:05:22;99480.79;;;14.90;89.65
24336;BME280;33098;52.400;16.880;2023-03-24T09:07:49;99481.96;;;15.05;89.75
24336;BME280;33098;52.400;16.880;2023-03-24T09:10:17;99480.11;;;15.18;89.10
24336;BME280;33098;52.400;16.880;2023-03-24T09:12:45;99473.98;;;15.32;88.82
24336;BME280;33098;52.400;16.880;2023-03-24T09:15:13;99475.02;;;15.41;87.98
24336;BME280;33098;52.400;16.880;2023-03-24T09:17:40;99473.73;;;15.46;87.22
24336;BME280;33098;52.400;16.880;2023-03-24T09:20:08;99474.85;;;15.50;85.98
24336;BME280;33098;52.400;16.880;2023-03-24T09:22:42;99473.23;;;15.59;85.88
24336;BME280;33098;52.400;16.880;2023-03-24T09:25:14;99465.05;;;15.66;85.82
24336;BME280;33098;52.400;16.880;2023-03-24T09:27:43;99462.79;;;15.73;85.05
24336;BME280;33098;52.400;16.880;2023-03-24T09:30:10;99459.86;;;15.69;83.56
24336;BME280;33098;52.400;16.880;2023-03-24T09:32:38;99453.62;;;15.66;83.38
24336;BME280;33098;52.400;16.880;2023-03-24T09:35:05;99450.04;;;15.64;82.90
24336;BME280;33098;52.400;16.880;2023-03-24T09:37:34;99445.08;;;15.67;82.63
24336;BME280;33098;52.400;16.880;2023-03-24T09:40:02;99442.33;;;15.74;82.19
24336;BME280;33098;52.400;16.880;2023-03-24T09:42:36;99436.40;;;15.83;82.27
24336;BME280;33098;52.400;16.880;2023-03-24T09:45:12;99427.70;;;16.00;82.95
24336;BME280;33098;52.400;16.880;2023-03-24T09:47:42;99437.92;;;16.19;82.96
24336;BME280;33098;52.400;16.880;2023-03-24T09:50:20;99432.35;;;16.23;79.48
24336;BME280;33098;52.400;16.880;2023-03-24T09:52:58;99431.87;;;16.24;79.43
24336;BME280;33098;52.400;16.880;2023-03-24T09:55:29;99431.84;;;16.21;78.88
24336;BME280;33098;52.400;16.880;2023-03-24T09:57:59;99428.19;;;16.20;78.37
24336;BME280;33098;52.400;16.880;2023-03-24T10:00:28;99425.95;;;16.17;78.13
24336;BME280;33098;52.400;16.880;2023-03-24T10:02:57;99433.78;;;16.13;77.17
24336;BME280;33098;52.400;16.880;2023-03-24T10:05:36;99430.04;;;16.09;77.25
24336;BME280;33098;52.400;16.880;2023-03-24T10:11:06;99429.36;;;16.08;77.78
24336;BME280;33098;52.400;16.880;2023-03-24T10:13:43;99429.92;;;16.10;77.50
24336;BME280;33098;52.400;16.880;2023-03-24T10:16:21;99434.58;;;16.05;77.29
24336;BME280;33098;52.400;16.880;2023-03-24T10:19:05;99438.14;;;16.02;77.38
24336;BME280;33098;52.400;16.880;2023-03-24T10:21:39;99433.56;;;16.08;77.87
24336;BME280;33098;52.400;16.880;2023-03-24T10:24:53;99432.02;;;16.18;78.31
24336;BME280;33098;52.400;16.880;2023-03-24T10:29:33;99414.26;;;16.06;78.18
24336;BME280;33098;52.400;16.880;2023-03-24T10:34:33;99417.59;;;16.01;78.08
24336;BME280;33098;52.400;16.880;2023-03-24T10:37:01;99423.90;;;15.97;78.34
24336;BME280;33098;52.400;16.880;2023-03-24T10:39:30;99419.94;;;15.93;78.42
24336;BME280;33098;52.400;16.880;2023-03-24T10:41:57;99417.75;;;15.85;78.38
24336;BME280;33098;52.400;16.880;2023-03-24T10:44:24;99415.83;;;15.82;78.57
24336;BME280;33098;52.400;16.880;2023-03-24T10:47:02;99410.77;;;15.79;78.89
24336;BME280;33098;52.400;16.880;2023-03-24T10:49:31;99416.58;;;15.78;78.58
24336;BME280;33098;52.400;16.880;2023-03-24T10:51:59;99410.69;;;15.77;78.68
24336;BME280;33098;52.400;16.880;2023-03-24T10:54:29;99406.52;;;15.80;78.99
24336;BME280;33098;52.400;16.880;2023-03-24T10:57:01;99404.92;;;15.83;78.85
24336;BME280;33098;52.400;16.880;2023-03-24T11:04:30;99399.42;;;16.01;78.78
24336;BME280;33098;52.400;16.880;2023-03-24T11:07:12;99406.39;;;16.05;78.50
24336;BME280;33098;52.400;16.880;2023-03-24T11:09:43;99401.78;;;16.09;78.66
24336;BME280;33098;52.400;16.880;2023-03-24T11:12:32;99400.09;;;16.12;78.39
24336;BME280;33098;52.400;16.880;2023-03-24T11:15:16;99402.52;;;16.13;78.15
24336;BME280;33098;52.400;16.880;2023-03-24T11:17:44;99409.03;;;16.12;77.67
24336;BME280;33098;52.400;16.880;2023-03-24T11:20:46;99404.68;;;16.14;77.62
24336;BME280;33098;52.400;16.880;2023-03-24T11:23:16;99400.02;;;16.13;77.24
24336;BME280;33098;52.400;16.880;2023-03-24T11:28:52;99407.21;;;16.12;76.87
24336;BME280;33098;52.400;16.880;2023-03-24T11:31:23;99402.98;;;16.11;77.19
24336;BME280;33098;52.400;16.880;2023-03-24T11:34:00;99402.42;;;16.11;77.15
24336;BME280;33098;52.400;16.880;2023-03-24T11:38:59;99411.29;;;16.17;77.89
24336;BME280;33098;52.400;16.880;2023-03-24T11:41:26;99407.30;;;16.16;77.56
24336;BME280;33098;52.400;16.880;2023-03-24T11:46:42;99401.77;;;16.16;78.17
24336;BME280;33098;52.400;16.880;2023-03-24T11:49:10;99399.05;;;16.26;78.66
24336;BME280;33098;52.400;16.880;2023-03-24T11:51:40;99394.52;;;16.32;78.20
24336;BME280;33098;52.400;16.880;2023-03-24T11:54:10;99398.38;;;16.43;78.30
24336;BME280;33098;52.400;16.880;2023-03-24T11:56:43;99390.77;;;16.50;77.59
24336;BME280;33098;52.400;16.880;2023-03-24T11:59:27;99386.50;;;16.57;77.69
24336;BME280;33098;52.400;16.880;2023-03-24T12:04:44;99381.43;;;16.84;77.66
24336;BME280;33098;52.400;16.880;2023-03-24T12:07:27;99377.73;;;16.99;77.24
24336;BME280;33098;52.400;16.880;2023-03-24T12:22:54;99358.98;;;18.05;75.40
24336;BME280;33098;52.400;16.880;2023-03-24T12:25:28;99356.02;;;18.16;75.18
24336;BME280;33098;52.400;16.880;2023-03-24T12:28:02;99362.98;;;18.21;74.70
24336;BME280;33098;52.400;16.880;2023-03-24T12:30:40;99366.52;;;18.26;74.40
24336;BME280;33098;52.400;16.880;2023-03-24T12:39:05;99359.30;;;18.28;73.67
24336;BME280;33098;52.400;16.880;2023-03-24T12:47:08;99357.27;;;18.51;72.25
24336;BME280;33098;52.400;16.880;2023-03-24T12:54:52;99350.27;;;18.61;70.51
24336;BME280;33098;52.400;16.880;2023-03-24T12:57:23;99350.59;;;18.60;69.89
24336;BME280;33098;52.400;16.880;2023-03-24T12:59:52;99349.87;;;18.61;69.97
24336;BME280;33098;52.400;16.880;2023-03-24T13:02:32;99350.16;;;18.63;69.06
24336;BME280;33098;52.400;16.880;2023-03-24T13:05:04;99351.74;;;18.56;67.33
24336;BME280;33098;52.400;16.880;2023-03-24T13:07:35;99355.64;;;18.57;67.20
24336;BME280;33098;52.400;16.880;2023-03-24T13:20:39;99336.52;;;18.32;65.54
24336;BME280;33098;52.400;16.880;2023-03-24T13:26:00;99334.70;;;18.25;65.79
24336;BME280;33098;52.400;16.880;2023-03-24T13:28:30;99332.88;;;18.30;65.69
24336;BME280;33098;52.400;16.880;2023-03-24T13:31:02;99324.92;;;18.33;65.62
24336;BME280;33098;52.400;16.880;2023-03-24T13:33:30;99323.73;;;18.34;65.06
24336;BME280;33098;52.400;16.880;2023-03-24T13:41:18;99327.35;;;18.46;64.46
24336;BME280;33098;52.400;16.880;2023-03-24T13:43:50;99322.18;;;18.49;64.06
24336;BME280;33098;52.400;16.880;2023-03-24T13:46:23;99319.89;;;18.44;62.30
24336;BME280;33098;52.400;16.880;2023-03-24T13:48:51;99319.55;;;18.35;62.51
24336;BME280;33098;52.400;16.880;2023-03-24T13:53:52;99315.23;;;18.27;63.08
24336;BME280;33098;52.400;16.880;2023-03-24T13:56:30;99311.39;;;18.29;63.16
24336;BME280;33098;52.400;16.880;2023-03-24T13:59:07;99302.48;;;18.27;63.16
24336;BME280;33098;52.400;16.880;2023-03-24T14:01:36;99308.02;;;18.26;62.74
24336;BME280;33098;52.400;16.880;2023-03-24T14:04:13;99314.05;;;18.21;62.80
24336;BME280;33098;52.400;16.880;2023-03-24T14:06:48;99310.00;;;18.09;61.33
24336;BME280;33098;52.400;16.880;2023-03-24T14:09:20;99304.59;;;18.06;62.79
24336;BME280;33098;52.400;16.880;2023-03-24T14:14:24;99312.63;;;18.27;62.20
24336;BME280;33098;52.400;16.880;2023-03-24T14:17:01;99312.79;;;18.35;62.63
24336;BME280;33098;52.400;16.880;2023-03-24T14:24:44;99308.89;;;18.60;62.22
24336;BME280;33098;52.400;16.880;2023-03-24T14:29:50;99303.14;;;18.47;62.11
24336;BME280;33098;52.400;16.880;2023-03-24T14:32:19;99307.55;;;18.39;61.62
24336;BME280;33098;52.400;16.880;2023-03-24T14:34:52;99311.54;;;18.34;62.29
24336;BME280;33098;52.400;16.880;2023-03-24T14:37:23;99316.02;;;18.27;62.05
24336;BME280;33098;52.400;16.880;2023-03-24T14:39:53;99310.35;;;18.21;62.52
24336;BME280;33098;52.400;16.880;2023-03-24T14:45:05;99301.41;;;18.07;62.82
24336;BME280;33098;52.400;16.880;2023-03-24T14:47:33;99294.60;;;18.02;63.17
24336;BME280;33098;52.400;16.880;2023-03-24T14:50:16;99299.72;;;17.97;63.19
24336;BME280;33098;52.400;16.880;2023-03-24T14:52:57;99296.41;;;17.83;63.04
24336;BME280;33098;52.400;16.880;2023-03-24T14:55:28;99300.66;;;17.71;63.02
24336;BME280;33098;52.400;16.880;2023-03-24T14:58:01;99306.81;;;17.60;63.29
24336;BME280;33098;52.400;16.880;2023-03-24T15:00:34;99306.00;;;17.54;63.44
24336;BME280;33098;52.400;16.880;2023-03-24T15:03:26;99307.14;;;17.51;63.55
24336;BME280;33098;52.400;16.880;2023-03-24T15:06:10;99305.47;;;17.44;63.78
24336;BME280;33098;52.400;16.880;2023-03-24T15:08:42;99303.34;;;17.39;63.84
24336;BME280;33098;52.400;16.880;2023-03-24T15:11:10;99304.56;;;17.36;64.00
24336;BME280;33098;52.400;16.880;2023-03-24T15:13:50;99307.27;;;17.34;64.38
24336;BME280;33098;52.400;16.880;2023-03-24T15:18:46;99330.27;;;17.16;65.75
24336;BME280;33098;52.400;16.880;2023-03-24T15:23:48;99350.68;;;16.35;71.20
24336;BME280;33098;52.400;16.880;2023-03-24T15:26:15;99363.42;;;15.91;73.15
24336;BME280;33098;52.400;16.880;2023-03-24T15:28:54;99363.13;;;15.41;76.78
24336;BME280;33098;52.400;16.880;2023-03-24T15:31:23;99362.39;;;15.02;78.57
24336;BME280;33098;52.400;16.880;2023-03-24T15:33:50;99362.88;;;14.77;78.60
24336;BME280;33098;52.400;16.880;2023-03-24T15:36:20;99371.36;;;14.62;80.40
24336;BME280;33098;52.400;16.880;2023-03-24T15:38:50;99370.56;;;14.48;81.29
24336;BME280;33098;52.400;16.880;2023-03-24T15:41:19;99353.02;;;14.41;82.03
24336;BME280;33098;52.400;16.880;2023-03-24T15:43:51;99328.17;;;14.35;81.22